Sunny Spray — PA3216 — position and weather

sailwx.info

Track history (hours):
 
Tides and Currents Weather Stations Pressure Air Temp Water Temp Dewpoint Dewpoint Depression Visibility Wind Speed Wind Dir Waves Ship Positions

Sunny Spray

Last reported at 2017-Oct-26 21:32 UTC. Time now 2017-Nov-20 02:11 UTC.
Position N 38°30' W 000°13'.
Warning: this ship's position is 24 days out of date.

Length 12 m.

Type: Pleasure craft. MMSI: 244780434.

Date/timePositionNaut miles runAvg speedWind from/ knotsBaromVisibWave heightAir tempDewpointWater temp
2017-Oct-26 21:32N 38°30' W 000°13'0 0.0
2017-Oct-26 19:38N 38°30' W 000°13'0 0.0
2017-Oct-26 19:26N 38°30' W 000°13'0 0.0
2017-Oct-26 18:56N 38°30' W 000°13'0 0.0
2017-Oct-26 18:08N 38°30' W 000°13'0 0.0
2017-Oct-26 17:56N 38°30' W 000°13'0 0.0
2017-Oct-26 15:26N 38°30' W 000°13'0 0.0
2017-Oct-26 14:56N 38°30' W 000°13'0 0.0
2017-Oct-26 14:26N 38°30' W 000°13'0 0.4
2017-Oct-26 13:58N 38°30' W 000°13'2 5.1
2017-Oct-26 13:30N 38°28' W 000°14'3 5.1
2017-Oct-26 12:59N 38°26' W 000°16'20 5.1
2017-Oct-26 09:08N 38°08' W 000°26'10 5.9
2017-Oct-26 07:27N 38°01' W 000°35'3 5.9
2017-Oct-26 07:00N 37°59' W 000°37'3 6.0
2017-Oct-26 06:30N 37°58' W 000°41'0 0.6
2017-Oct-26 05:56N 37°58' W 000°41'0 0.0
2017-Oct-26 05:29N 37°58' W 000°41'0 0.0
2017-Oct-26 04:56N 37°58' W 000°41'0 0.0
2017-Oct-26 04:29N 37°58' W 000°41'0 0.0
2017-Oct-26 03:59N 37°58' W 000°41'0 0.0
2017-Oct-26 03:26N 37°58' W 000°41'0 0.0
2017-Oct-26 02:59N 37°58' W 000°41'0 0.0
2017-Oct-26 02:29N 37°58' W 000°41'0 0.0
2017-Oct-26 01:56N 37°58' W 000°41'0 0.0
2017-Oct-26 01:26N 37°58' W 000°41'0 0.0
2017-Oct-26 00:53N 37°58' W 000°41'0 0.0
2017-Oct-26 00:26N 37°58' W 000°41'0 0.0
2017-Oct-25 23:59N 37°58' W 000°41'0 0.0
2017-Oct-25 23:26N 37°58' W 000°41'0 0.0
2017-Oct-25 22:44N 37°58' W 000°41'0 0.0
2017-Oct-25 22:29N 37°58' W 000°41'0 0.0
2017-Oct-25 21:53N 37°58' W 000°41'0 0.0
2017-Oct-25 21:26N 37°58' W 000°41'0 0.0
2017-Oct-25 20:59N 37°58' W 000°41'0 0.0
2017-Oct-25 20:29N 37°58' W 000°41'0 0.0
2017-Oct-25 19:56N 37°58' W 000°41'0 0.0
2017-Oct-25 19:29N 37°58' W 000°41'0 0.0
2017-Oct-25 18:56N 37°58' W 000°41'0 0.0
2017-Oct-25 18:29N 37°58' W 000°41'0 0.0
2017-Oct-25 17:50N 37°58' W 000°41'0 0.0
2017-Oct-25 17:23N 37°58' W 000°41'0 0.0
2017-Oct-25 16:56N 37°58' W 000°41'0 0.0
2017-Oct-25 16:26N 37°58' W 000°41'0 0.0
2017-Oct-25 15:59N 37°58' W 000°41'0 0.0
2017-Oct-25 15:23N 37°58' W 000°41'0 0.0
2017-Oct-25 14:59N 37°58' W 000°41'0 0.1
2017-Oct-25 14:28N 37°58' W 000°41'1 3.2
2017-Oct-25 13:59N 37°57' W 000°41'3 5.6
2017-Oct-25 13:30N 37°54' W 000°40'3 5.4
2017-Oct-25 12:59N 37°51' W 000°40'3 5.1
2017-Oct-25 12:30N 37°49' W 000°39'3 5.1
2017-Oct-25 12:00N 37°46' W 000°38'3 5.2
2017-Oct-25 11:30N 37°44' W 000°38'3 5.2
2017-Oct-25 11:00N 37°41' W 000°37'2 4.8
2017-Oct-25 10:30N 37°39' W 000°38'3 5.4
2017-Oct-25 10:00N 37°37' W 000°41'3 5.3
2017-Oct-25 09:24N 37°35' W 000°43'2 5.1
2017-Oct-25 09:00N 37°33' W 000°46'4 5.0
2017-Oct-25 08:17N 37°33' W 000°50'  
Track history (hours):
 
Tides and Currents Weather Stations Pressure Air Temp Water Temp Dewpoint Dewpoint Depression Visibility Wind Speed Wind Dir Waves Ship Positions

Sunny Spray

Last reported at 2017-Oct-26 21:32 UTC. Time now 2017-Nov-20 02:11 UTC.
Position N 38°30' W 000°13'.
Warning: this ship's position is 24 days out of date.

Length 12 m.

Type: Pleasure craft. MMSI: 244780434.

Date/timePositionNaut miles runAvg speedWind from/ knotsBaromVisibWave heightAir tempDewpointWater temp
2017-Oct-26 21:32N 38°30' W 000°13'0 0.0
2017-Oct-26 19:38N 38°30' W 000°13'0 0.0
2017-Oct-26 19:26N 38°30' W 000°13'0 0.0
2017-Oct-26 18:56N 38°30' W 000°13'0 0.0
2017-Oct-26 18:08N 38°30' W 000°13'0 0.0
2017-Oct-26 17:56N 38°30' W 000°13'0 0.0
2017-Oct-26 15:26N 38°30' W 000°13'0 0.0
2017-Oct-26 14:56N 38°30' W 000°13'0 0.0
2017-Oct-26 14:26N 38°30' W 000°13'0 0.4
2017-Oct-26 13:58N 38°30' W 000°13'2 5.1
2017-Oct-26 13:30N 38°28' W 000°14'3 5.1
2017-Oct-26 12:59N 38°26' W 000°16'20 5.1
2017-Oct-26 09:08N 38°08' W 000°26'10 5.9
2017-Oct-26 07:27N 38°01' W 000°35'3 5.9
2017-Oct-26 07:00N 37°59' W 000°37'3 6.0
2017-Oct-26 06:30N 37°58' W 000°41'0 0.6
2017-Oct-26 05:56N 37°58' W 000°41'0 0.0
2017-Oct-26 05:29N 37°58' W 000°41'0 0.0
2017-Oct-26 04:56N 37°58' W 000°41'0 0.0
2017-Oct-26 04:29N 37°58' W 000°41'0 0.0
2017-Oct-26 03:59N 37°58' W 000°41'0 0.0
2017-Oct-26 03:26N 37°58' W 000°41'0 0.0
2017-Oct-26 02:59N 37°58' W 000°41'0 0.0
2017-Oct-26 02:29N 37°58' W 000°41'0 0.0
2017-Oct-26 01:56N 37°58' W 000°41'0 0.0
2017-Oct-26 01:26N 37°58' W 000°41'0 0.0
2017-Oct-26 00:53N 37°58' W 000°41'0 0.0
2017-Oct-26 00:26N 37°58' W 000°41'0 0.0
2017-Oct-25 23:59N 37°58' W 000°41'0 0.0
2017-Oct-25 23:26N 37°58' W 000°41'0 0.0
2017-Oct-25 22:44N 37°58' W 000°41'0 0.0
2017-Oct-25 22:29N 37°58' W 000°41'0 0.0
2017-Oct-25 21:53N 37°58' W 000°41'0 0.0
2017-Oct-25 21:26N 37°58' W 000°41'0 0.0
2017-Oct-25 20:59N 37°58' W 000°41'0 0.0
2017-Oct-25 20:29N 37°58' W 000°41'0 0.0
2017-Oct-25 19:56N 37°58' W 000°41'0 0.0
2017-Oct-25 19:29N 37°58' W 000°41'0 0.0
2017-Oct-25 18:56N 37°58' W 000°41'0 0.0
2017-Oct-25 18:29N 37°58' W 000°41'0 0.0
2017-Oct-25 17:50N 37°58' W 000°41'0 0.0
2017-Oct-25 17:23N 37°58' W 000°41'0 0.0
2017-Oct-25 16:56N 37°58' W 000°41'0 0.0
2017-Oct-25 16:26N 37°58' W 000°41'0 0.0
2017-Oct-25 15:59N 37°58' W 000°41'0 0.0
2017-Oct-25 15:23N 37°58' W 000°41'0 0.0
2017-Oct-25 14:59N 37°58' W 000°41'0 0.1
2017-Oct-25 14:28N 37°58' W 000°41'1 3.2
2017-Oct-25 13:59N 37°57' W 000°41'3 5.6
2017-Oct-25 13:30N 37°54' W 000°40'3 5.4
2017-Oct-25 12:59N 37°51' W 000°40'3 5.1
2017-Oct-25 12:30N 37°49' W 000°39'3 5.1
2017-Oct-25 12:00N 37°46' W 000°38'3 5.2
2017-Oct-25 11:30N 37°44' W 000°38'3 5.2
2017-Oct-25 11:00N 37°41' W 000°37'2 4.8
2017-Oct-25 10:30N 37°39' W 000°38'3 5.4
2017-Oct-25 10:00N 37°37' W 000°41'3 5.3
2017-Oct-25 09:24N 37°35' W 000°43'2 5.1
2017-Oct-25 09:00N 37°33' W 000°46'4 5.0
2017-Oct-25 08:17N 37°33' W 000°50'  

Dump ship's entire track history